Time,TemperatureF,DewpointF,PressureIn,WindDirection,WindDirectionDegrees,WindSpeedMPH,WindSpeedGustMPH,Humidity,HourlyPrecipIn,Conditions,Clouds,dailyrainin,SolarRadiationWatts/m^2,SoftwareType,DateUTC
2013-05-21 00:32:00,78.0,23.0,-100.00,East,95,0.0,5.0,13,0.00,,,0.00,0.000000,,2013-05-21 07:32:00,
2013-05-21 02:33:00,71.0,16.0,-100.00,East,92,1.0,2.0,12,-99.99,,,0.00,0.000000,,2013-05-21 09:33:00,
2013-05-21 03:33:00,71.0,14.0,-100.00,ESE,110,2.0,2.0,11,0.00,,,0.00,0.000000,,2013-05-21 10:33:00,
2013-05-21 04:42:00,72.0,17.0,-100.00,East,94,1.0,3.0,12,0.00,,,0.00,0.000000,,2013-05-21 11:42:00,
2013-05-21 04:52:00,72.0,17.0,-100.00,East,94,1.0,3.0,12,0.00,,,0.00,0.000000,,2013-05-21 11:52:00,
2013-05-21 05:32:00,68.0,15.0,-100.00,ESE,106,0.0,3.0,13,0.00,,,0.00,0.000000,,2013-05-21 12:32:00,
2013-05-21 06:32:00,67.0,15.0,-100.00,NW,322,0.0,3.0,13,0.00,,,-99.99,0.000000,,2013-05-21 13:32:00,
2013-05-21 07:32:00,68.0,7.0,-100.00,SSE,148,0.0,2.0,9,0.00,,,0.00,17.000000,,2013-05-21 14:32:00,
2013-05-21 09:32:00,85.0,11.0,-100.00,SSE,151,1.0,6.0,6,-99.99,,,0.00,465.000000,,2013-05-21 16:32:00,
2013-05-21 10:33:00,91.0,6.0,-100.00,SW,224,1.0,5.0,4,0.00,,,0.00,709.000000,,2013-05-21 17:33:00,
2013-05-21 11:32:00,98.0,11.0,-100.00,WNW,283,1.0,4.0,4,0.00,,,0.00,918.000000,,2013-05-21 18:32:00,
2013-05-21 12:32:00,101.0,13.0,-100.00,NNE,14,4.0,7.0,4,0.00,,,-99.99,1151.000000,,2013-05-21 19:32:00,
2013-05-21 13:32:00,101.0,6.0,-100.00,SW,229,5.0,11.0,3,0.00,,,0.00,1241.000000,,2013-05-21 20:32:00,
2013-05-21 14:33:00,102.0,7.0,-100.00,WSW,249,4.0,11.0,3,0.00,,,-99.99,1245.000000,,2013-05-21 21:33:00,
2013-05-21 15:33:00,103.0,14.0,-100.00,NNW,339,5.0,13.0,4,0.00,,,0.00,1245.000000,,2013-05-21 22:33:00,
2013-05-21 16:32:00,106.0,16.0,-100.00,SSW,208,5.0,10.0,4,0.00,,,0.00,1113.000000,,2013-05-21 23:32:00,
2013-05-21 18:32:00,105.0,20.0,-100.00,SW,217,8.0,13.0,5,-99.99,,,0.00,720.000000,,2013-05-22 01:32:00,
2013-05-21 19:32:00,101.0,26.0,-100.00,South,185,7.0,13.0,7,0.00,,,0.00,446.000000,,2013-05-22 02:32:00,
2013-05-21 19:42:00,101.0,26.0,-100.00,South,185,7.0,13.0,7,0.00,,,0.00,446.000000,,2013-05-22 02:42:00,
2013-05-21 20:33:00,97.0,34.0,-100.00,SSW,198,5.0,13.0,11,0.00,,,0.00,127.000000,,2013-05-22 03:33:00,
2013-05-21 20:43:00,97.0,34.0,-100.00,SSW,198,5.0,13.0,11,0.00,,,0.00,127.000000,,2013-05-22 03:43:00,
2013-05-21 20:53:00,97.0,34.0,-100.00,SSW,198,5.0,13.0,11,0.00,,,0.00,127.000000,,2013-05-22 03:53:00,
2013-05-21 21:03:00,97.0,34.0,-100.00,SSW,198,5.0,13.0,11,0.00,,,0.00,127.000000,,2013-05-22 04:03:00,
2013-05-21 21:33:00,92.0,32.0,-100.00,WSW,249,4.0,16.0,12,-99.99,,,0.00,7.000000,,2013-05-22 04:33:00,
2013-05-21 21:43:00,92.0,32.0,-100.00,WSW,249,4.0,16.0,12,-99.99,,,0.00,7.000000,,2013-05-22 04:43:00,
2013-05-21 21:53:00,92.0,32.0,-100.00,WSW,249,4.0,16.0,12,-99.99,,,0.00,7.000000,,2013-05-22 04:53:00,
2013-05-21 22:02:00,92.0,32.0,-100.00,WSW,249,4.0,16.0,12,-99.99,,,0.00,7.000000,,2013-05-22 05:02:00,
2013-05-21 22:32:00,90.0,28.0,-100.00,SW,230,2.0,14.0,11,-99.99,,,0.00,0.000000,,2013-05-22 05:32:00,
2013-05-21 23:32:00,88.0,31.0,-100.00,SSW,210,0.0,7.0,13,-99.99,,,0.00,0.000000,,2013-05-22 06:32:00,